sensor_id;sensor_type;location;lat;lon;timestamp;pressure;altitude;pressure_sealevel;temperature;humidity
26531;BME280;14201;43.188;24.160;2023-04-02T00:01:04;98582.50;;;10.64;77.71
26531;BME280;14201;43.188;24.160;2023-04-02T00:08:55;98593.28;;;10.45;77.94
26531;BME280;14201;43.188;24.160;2023-04-02T00:11:37;98589.81;;;10.46;77.44
26531;BME280;14201;43.188;24.160;2023-04-02T00:14:04;98595.94;;;10.48;77.91
26531;BME280;14201;43.188;24.160;2023-04-02T00:16:36;98596.50;;;10.36;78.90
26531;BME280;14201;43.188;24.160;2023-04-02T00:19:05;98611.06;;;10.30;78.70
26531;BME280;14201;43.188;24.160;2023-04-02T00:21:34;98598.56;;;10.16;78.82
26531;BME280;14201;43.188;24.160;2023-04-02T00:24:05;98598.66;;;9.88;80.08
26531;BME280;14201;43.188;24.160;2023-04-02T00:26:37;98602.28;;;9.93;80.89
26531;BME280;14201;43.188;24.160;2023-04-02T00:29:05;98604.31;;;10.04;80.27
26531;BME280;14201;43.188;24.160;2023-04-02T00:31:32;98603.72;;;10.15;79.93
26531;BME280;14201;43.188;24.160;2023-04-02T00:34:00;98594.13;;;10.12;80.17
26531;BME280;14201;43.188;24.160;2023-04-02T00:36:29;98599.56;;;10.21;79.92
26531;BME280;14201;43.188;24.160;2023-04-02T00:38:59;98591.38;;;10.08;80.32
26531;BME280;14201;43.188;24.160;2023-04-02T00:41:29;98593.94;;;10.06;80.80
26531;BME280;14201;43.188;24.160;2023-04-02T00:43:57;98598.63;;;10.19;80.02
26531;BME280;14201;43.188;24.160;2023-04-02T00:46:36;98596.78;;;10.15;80.14
26531;BME280;14201;43.188;24.160;2023-04-02T00:49:21;98605.69;;;10.23;79.51
26531;BME280;14201;43.188;24.160;2023-04-02T00:52:02;98599.41;;;10.15;79.98
26531;BME280;14201;43.188;24.160;2023-04-02T00:54:31;98590.50;;;10.07;79.96
26531;BME280;14201;43.188;24.160;2023-04-02T00:57:01;98596.72;;;10.12;79.81
26531;BME280;14201;43.188;24.160;2023-04-02T00:59:29;98596.16;;;9.92;80.73
26531;BME280;14201;43.188;24.160;2023-04-02T01:07:27;98609.53;;;10.06;79.89
26531;BME280;14201;43.188;24.160;2023-04-02T01:10:18;98601.72;;;10.04;79.52
26531;BME280;14201;43.188;24.160;2023-04-02T01:12:53;98615.66;;;10.07;79.18
26531;BME280;14201;43.188;24.160;2023-04-02T01:15:43;98616.47;;;10.05;79.51
26531;BME280;14201;43.188;24.160;2023-04-02T01:23:22;98621.72;;;10.07;79.30
26531;BME280;14201;43.188;24.160;2023-04-02T01:26:03;98616.19;;;9.95;78.83
26531;BME280;14201;43.188;24.160;2023-04-02T01:28:47;98624.63;;;10.18;78.26
26531;BME280;14201;43.188;24.160;2023-04-02T01:31:15;98623.19;;;9.97;79.50
26531;BME280;14201;43.188;24.160;2023-04-02T01:33:42;98618.00;;;9.97;78.13
26531;BME280;14201;43.188;24.160;2023-04-02T01:38:50;98627.03;;;10.12;77.43
26531;BME280;14201;43.188;24.160;2023-04-02T01:41:26;98622.81;;;10.15;78.33
26531;BME280;14201;43.188;24.160;2023-04-02T01:44:02;98614.69;;;10.03;78.25
26531;BME280;14201;43.188;24.160;2023-04-02T01:46:33;98634.78;;;10.09;77.75
26531;BME280;14201;43.188;24.160;2023-04-02T01:49:01;98626.34;;;10.17;77.80
26531;BME280;14201;43.188;24.160;2023-04-02T01:51:31;98629.16;;;10.25;78.13
26531;BME280;14201;43.188;24.160;2023-04-02T01:54:00;98634.06;;;10.14;76.83
26531;BME280;14201;43.188;24.160;2023-04-02T01:56:27;98625.09;;;10.33;76.07
26531;BME280;14201;43.188;24.160;2023-04-02T01:58:57;98636.63;;;10.43;75.09
26531;BME280;14201;43.188;24.160;2023-04-02T02:01:32;98634.13;;;10.48;75.34
26531;BME280;14201;43.188;24.160;2023-04-02T02:04:01;98638.00;;;10.30;75.69
26531;BME280;14201;43.188;24.160;2023-04-02T02:06:27;98626.81;;;10.34;75.23
26531;BME280;14201;43.188;24.160;2023-04-02T02:08:56;98626.69;;;10.30;76.67
26531;BME280;14201;43.188;24.160;2023-04-02T02:11:28;98634.75;;;10.39;75.85
26531;BME280;14201;43.188;24.160;2023-04-02T02:16:25;98633.09;;;10.11;76.55
26531;BME280;14201;43.188;24.160;2023-04-02T02:19:02;98637.16;;;10.31;75.96
26531;BME280;14201;43.188;24.160;2023-04-02T02:21:53;98624.09;;;10.30;75.05
26531;BME280;14201;43.188;24.160;2023-04-02T02:24:30;98628.72;;;10.40;75.67
26531;BME280;14201;43.188;24.160;2023-04-02T02:27:12;98626.41;;;10.52;75.68
26531;BME280;14201;43.188;24.160;2023-04-02T02:30:03;98633.50;;;10.58;73.96
26531;BME280;14201;43.188;24.160;2023-04-02T02:32:31;98622.91;;;10.50;75.32
26531;BME280;14201;43.188;24.160;2023-04-02T02:37:51;98633.59;;;10.61;74.40
26531;BME280;14201;43.188;24.160;2023-04-02T02:40:26;98607.28;;;10.50;73.89
26531;BME280;14201;43.188;24.160;2023-04-02T02:43:00;98633.44;;;10.55;74.49
26531;BME280;14201;43.188;24.160;2023-04-02T02:45:33;98640.16;;;10.45;74.87
26531;BME280;14201;43.188;24.160;2023-04-02T02:48:02;98641.13;;;10.50;74.02
26531;BME280;14201;43.188;24.160;2023-04-02T02:50:31;98634.53;;;10.63;73.82
26531;BME280;14201;43.188;24.160;2023-04-02T02:52:59;98634.22;;;10.52;74.40
26531;BME280;14201;43.188;24.160;2023-04-02T02:55:30;98638.16;;;10.36;75.19
26531;BME280;14201;43.188;24.160;2023-04-02T02:58:02;98636.53;;;10.40;75.24
26531;BME280;14201;43.188;24.160;2023-04-02T03:00:32;98636.47;;;10.38;74.91
26531;BME280;14201;43.188;24.160;2023-04-02T03:03:01;98639.31;;;10.48;74.07
26531;BME280;14201;43.188;24.160;2023-04-02T03:05:29;98632.50;;;10.51;73.84
26531;BME280;14201;43.188;24.160;2023-04-02T03:07:56;98629.19;;;10.58;73.43
26531;BME280;14201;43.188;24.160;2023-04-02T03:10:46;98640.25;;;10.50;73.93
26531;BME280;14201;43.188;24.160;2023-04-02T03:13:17;98629.06;;;10.54;72.56
26531;BME280;14201;43.188;24.160;2023-04-02T03:15:57;98637.44;;;10.42;72.67
26531;BME280;14201;43.188;24.160;2023-04-02T03:18:39;98632.53;;;10.53;72.54
26531;BME280;14201;43.188;24.160;2023-04-02T03:26:39;98640.47;;;10.27;73.60
26531;BME280;14201;43.188;24.160;2023-04-02T03:29:16;98642.31;;;10.30;73.88
26531;BME280;14201;43.188;24.160;2023-04-02T03:31:52;98644.06;;;10.62;72.43
26531;BME280;14201;43.188;24.160;2023-04-02T03:34:29;98650.78;;;10.54;71.90
26531;BME280;14201;43.188;24.160;2023-04-02T03:37:17;98652.69;;;10.61;71.78
26531;BME280;14201;43.188;24.160;2023-04-02T03:42:42;98656.22;;;10.63;70.75
26531;BME280;14201;43.188;24.160;2023-04-02T03:45:23;98659.59;;;10.59;71.21
26531;BME280;14201;43.188;24.160;2023-04-02T03:47:57;98663.88;;;10.57;70.98
26531;BME280;14201;43.188;24.160;2023-04-02T03:50:37;98658.09;;;10.36;70.91
26531;BME280;14201;43.188;24.160;2023-04-02T03:53:05;98660.66;;;10.04;72.85
26531;BME280;14201;43.188;24.160;2023-04-02T03:55:35;98656.91;;;9.64;74.15
26531;BME280;14201;43.188;24.160;2023-04-02T04:01:13;98668.44;;;10.04;72.99
26531;BME280;14201;43.188;24.160;2023-04-02T04:03:53;98664.16;;;10.04;72.31
26531;BME280;14201;43.188;24.160;2023-04-02T04:08:50;98665.91;;;10.05;72.06
26531;BME280;14201;43.188;24.160;2023-04-02T04:11:24;98675.78;;;10.17;71.10
26531;BME280;14201;43.188;24.160;2023-04-02T04:14:20;98675.88;;;10.20;70.62
26531;BME280;14201;43.188;24.160;2023-04-02T04:19:45;98675.00;;;10.20;69.90
26531;BME280;14201;43.188;24.160;2023-04-02T04:24:42;98672.94;;;10.10;69.89
26531;BME280;14201;43.188;24.160;2023-04-02T04:27:41;98678.41;;;10.19;69.13
26531;BME280;14201;43.188;24.160;2023-04-02T04:30:21;98667.22;;;10.21;69.56
26531;BME280;14201;43.188;24.160;2023-04-02T04:32:55;98677.34;;;10.11;70.35
26531;BME280;14201;43.188;24.160;2023-04-02T04:35:33;98684.44;;;10.16;70.23
26531;BME280;14201;43.188;24.160;2023-04-02T04:40:45;98675.16;;;9.96;70.20
26531;BME280;14201;43.188;24.160;2023-04-02T04:43:32;98671.06;;;10.04;70.44
26531;BME280;14201;43.188;24.160;2023-04-02T04:46:30;98693.44;;;10.28;70.09
26531;BME280;14201;43.188;24.160;2023-04-02T04:48:59;98686.63;;;10.33;70.17
26531;BME280;14201;43.188;24.160;2023-04-02T04:51:36;98692.00;;;10.39;70.17
26531;BME280;14201;43.188;24.160;2023-04-02T04:54:03;98695.00;;;10.53;69.91
26531;BME280;14201;43.188;24.160;2023-04-02T04:56:30;98706.63;;;10.66;69.18
26531;BME280;14201;43.188;24.160;2023-04-02T04:59:12;98700.50;;;10.63;69.94
26531;BME280;14201;43.188;24.160;2023-04-02T05:01:45;98708.28;;;10.97;68.57
26531;BME280;14201;43.188;24.160;2023-04-02T05:04:16;98712.25;;;11.16;67.89
26531;BME280;14201;43.188;24.160;2023-04-02T05:07:04;98713.41;;;11.27;67.45
26531;BME280;14201;43.188;24.160;2023-04-02T05:09:37;98725.56;;;11.28;67.69
26531;BME280;14201;43.188;24.160;2023-04-02T05:12:29;98724.06;;;11.38;67.64
26531;BME280;14201;43.188;24.160;2023-04-02T05:15:03;98714.69;;;11.45;67.26
26531;BME280;14201;43.188;24.160;2023-04-02T05:17:40;98720.97;;;11.53;67.89
26531;BME280;14201;43.188;24.160;2023-04-02T05:20:26;98704.69;;;11.65;66.89
26531;BME280;14201;43.188;24.160;2023-04-02T05:23:14;98720.41;;;11.66;66.72
26531;BME280;14201;43.188;24.160;2023-04-02T05:26:05;98721.56;;;11.79;66.20
26531;BME280;14201;43.188;24.160;2023-04-02T05:28:42;98720.13;;;11.92;65.30
26531;BME280;14201;43.188;24.160;2023-04-02T05:31:41;98708.81;;;11.91;66.90
26531;BME280;14201;43.188;24.160;2023-04-02T05:34:10;98717.22;;;12.17;64.42
26531;BME280;14201;43.188;24.160;2023-04-02T05:36:37;98726.28;;;12.36;64.92
26531;BME280;14201;43.188;24.160;2023-04-02T05:39:07;98736.28;;;12.57;64.75
26531;BME280;14201;43.188;24.160;2023-04-02T05:41:40;98737.38;;;12.69;64.99
26531;BME280;14201;43.188;24.160;2023-04-02T05:44:27;98736.53;;;12.71;64.39
26531;BME280;14201;43.188;24.160;2023-04-02T05:47:04;98742.13;;;12.90;64.11
26531;BME280;14201;43.188;24.160;2023-04-02T05:49:41;98718.00;;;13.05;63.82
26531;BME280;14201;43.188;24.160;2023-04-02T05:52:14;98741.00;;;13.27;62.22
26531;BME280;14201;43.188;24.160;2023-04-02T05:54:48;98742.13;;;13.38;62.66
26531;BME280;14201;43.188;24.160;2023-04-02T05:57:21;98745.09;;;13.62;60.77
26531;BME280;14201;43.188;24.160;2023-04-02T05:59:55;98744.50;;;13.79;60.90
26531;BME280;14201;43.188;24.160;2023-04-02T06:02:29;98748.16;;;13.91;60.64
26531;BME280;14201;43.188;24.160;2023-04-02T06:07:45;98754.81;;;14.34;59.13
26531;BME280;14201;43.188;24.160;2023-04-02T06:10:24;98762.88;;;14.47;59.60
26531;BME280;14201;43.188;24.160;2023-04-02T06:12:57;98757.13;;;14.77;57.22
26531;BME280;14201;43.188;24.160;2023-04-02T06:15:28;98761.56;;;14.84;57.54
26531;BME280;14201;43.188;24.160;2023-04-02T06:17:59;98763.63;;;15.13;57.86
26531;BME280;14201;43.188;24.160;2023-04-02T06:20:26;98758.16;;;14.91;54.92
26531;BME280;14201;43.188;24.160;2023-04-02T06:22:57;98765.91;;;14.81;56.87
26531;BME280;14201;43.188;24.160;2023-04-02T06:25:45;98757.44;;;15.08;55.03
26531;BME280;14201;43.188;24.160;2023-04-02T06:28:44;98762.03;;;15.30;55.29
26531;BME280;14201;43.188;24.160;2023-04-02T06:33:54;98769.44;;;15.79;55.17
26531;BME280;14201;43.188;24.160;2023-04-02T06:36:22;98769.63;;;16.05;54.38
26531;BME280;14201;43.188;24.160;2023-04-02T06:38:49;98764.47;;;16.24;50.73
26531;BME280;14201;43.188;24.160;2023-04-02T06:41:23;98767.19;;;16.41;53.39
26531;BME280;14201;43.188;24.160;2023-04-02T06:43:55;98774.28;;;16.71;51.28
26531;BME280;14201;43.188;24.160;2023-04-02T06:46:30;98757.75;;;16.90;53.57
26531;BME280;14201;43.188;24.160;2023-04-02T06:49:12;98746.38;;;17.13;49.14
26531;BME280;14201;43.188;24.160;2023-04-02T06:51:39;98764.81;;;17.21;48.69
26531;BME280;14201;43.188;24.160;2023-04-02T06:54:15;98750.78;;;17.26;49.24
26531;BME280;14201;43.188;24.160;2023-04-02T06:56:48;98782.38;;;17.54;49.08
26531;BME280;14201;43.188;24.160;2023-04-02T06:59:15;98772.75;;;17.85;48.47
26531;BME280;14201;43.188;24.160;2023-04-02T07:02:03;98772.72;;;18.07;45.84
26531;BME280;14201;43.188;24.160;2023-04-02T07:04:27;98779.72;;;18.19;45.50
26531;BME280;14201;43.188;24.160;2023-04-02T07:06:53;98777.97;;;18.19;45.99
26531;BME280;14201;43.188;24.160;2023-04-02T07:09:18;98781.50;;;18.07;46.69
26531;BME280;14201;43.188;24.160;2023-04-02T07:11:44;98782.34;;;18.20;46.86
26531;BME280;14201;43.188;24.160;2023-04-02T07:14:10;98777.06;;;18.23;47.48
26531;BME280;14201;43.188;24.160;2023-04-02T07:16:36;98783.25;;;17.79;47.46
26531;BME280;14201;43.188;24.160;2023-04-02T07:19:02;98775.38;;;17.99;46.90
26531;BME280;14201;43.188;24.160;2023-04-02T07:21:29;98787.63;;;18.22;48.17
26531;BME280;14201;43.188;24.160;2023-04-02T07:23:55;98783.25;;;18.21;45.94
26531;BME280;14201;43.188;24.160;2023-04-02T07:26:24;98791.88;;;18.64;45.65
26531;BME280;14201;43.188;24.160;2023-04-02T07:28:51;98795.31;;;18.93;45.79
26531;BME280;14201;43.188;24.160;2023-04-02T07:31:24;98796.81;;;19.37;45.43
26531;BME280;14201;43.188;24.160;2023-04-02T07:33:50;98793.09;;;19.62;43.91
26531;BME280;14201;43.188;24.160;2023-04-02T07:36:17;98785.78;;;19.95;45.13
26531;BME280;14201;43.188;24.160;2023-04-02T07:38:43;98796.22;;;20.06;41.46
26531;BME280;14201;43.188;24.160;2023-04-02T07:41:09;98790.16;;;19.98;43.12
26531;BME280;14201;43.188;24.160;2023-04-02T07:43:34;98778.59;;;20.10;43.50
26531;BME280;14201;43.188;24.160;2023-04-02T07:46:00;98802.38;;;20.10;43.83
26531;BME280;14201;43.188;24.160;2023-04-02T07:48:26;98784.72;;;20.15;41.73
26531;BME280;14201;43.188;24.160;2023-04-02T07:50:51;98796.94;;;20.22;41.97
26531;BME280;14201;43.188;24.160;2023-04-02T07:55:54;98792.31;;;20.44;39.25
26531;BME280;14201;43.188;24.160;2023-04-02T07:58:20;98794.88;;;20.52;41.71
26531;BME280;14201;43.188;24.160;2023-04-02T08:00:45;98795.41;;;20.81;40.45
26531;BME280;14201;43.188;24.160;2023-04-02T08:03:11;98797.53;;;20.49;41.29
26531;BME280;14201;43.188;24.160;2023-04-02T08:05:37;98791.41;;;20.46;39.66
26531;BME280;14201;43.188;24.160;2023-04-02T08:08:02;98797.31;;;20.72;40.14
26531;BME280;14201;43.188;24.160;2023-04-02T08:10:27;98797.03;;;20.92;39.79
26531;BME280;14201;43.188;24.160;2023-04-02T08:12:53;98806.53;;;21.10;39.94
26531;BME280;14201;43.188;24.160;2023-04-02T08:15:18;98801.00;;;21.25;38.68
26531;BME280;14201;43.188;24.160;2023-04-02T08:17:44;98803.63;;;21.27;38.39
26531;BME280;14201;43.188;24.160;2023-04-02T08:20:16;98803.25;;;20.91;38.92
26531;BME280;14201;43.188;24.160;2023-04-02T08:22:42;98805.78;;;20.98;37.75
26531;BME280;14201;43.188;24.160;2023-04-02T08:25:08;98813.34;;;21.26;39.52
26531;BME280;14201;43.188;24.160;2023-04-02T08:27:34;98804.25;;;21.46;38.38
26531;BME280;14201;43.188;24.160;2023-04-02T08:29:59;98812.59;;;21.16;40.87
26531;BME280;14201;43.188;24.160;2023-04-02T08:32:25;98809.41;;;21.56;39.59
26531;BME280;14201;43.188;24.160;2023-04-02T08:34:53;98811.59;;;21.84;39.38
26531;BME280;14201;43.188;24.160;2023-04-02T08:37:18;98817.34;;;22.09;39.14
26531;BME280;14201;43.188;24.160;2023-04-02T08:39:43;98815.09;;;21.86;37.46
26531;BME280;14201;43.188;24.160;2023-04-02T08:42:23;98820.13;;;22.03;39.54
26531;BME280;14201;43.188;24.160;2023-04-02T08:47:26;98826.28;;;22.03;38.29
26531;BME280;14201;43.188;24.160;2023-04-02T08:50:01;98824.94;;;22.31;38.43
26531;BME280;14201;43.188;24.160;2023-04-02T08:52:28;98832.00;;;22.78;37.56
26531;BME280;14201;43.188;24.160;2023-04-02T08:54:54;98833.00;;;22.73;35.51
26531;BME280;14201;43.188;24.160;2023-04-02T08:59:52;98827.75;;;21.67;36.74
26531;BME280;14201;43.188;24.160;2023-04-02T09:02:30;98831.31;;;21.04;37.19
26531;BME280;14201;43.188;24.160;2023-04-02T09:05:01;98828.88;;;20.87;38.08
26531;BME280;14201;43.188;24.160;2023-04-02T09:07:28;98821.81;;;20.88;37.21
26531;BME280;14201;43.188;24.160;2023-04-02T09:09:53;98833.72;;;20.48;38.09
26531;BME280;14201;43.188;24.160;2023-04-02T09:12:20;98837.16;;;20.55;38.07
26531;BME280;14201;43.188;24.160;2023-04-02T09:17:44;98836.94;;;19.86;39.05
26531;BME280;14201;43.188;24.160;2023-04-02T09:22:41;98831.22;;;19.21;38.39
26531;BME280;14201;43.188;24.160;2023-04-02T09:25:14;98829.25;;;19.54;41.31
26531;BME280;14201;43.188;24.160;2023-04-02T09:27:41;98837.66;;;20.05;40.95
26531;BME280;14201;43.188;24.160;2023-04-02T09:30:12;98835.34;;;20.58;38.31
26531;BME280;14201;43.188;24.160;2023-04-02T09:32:48;98826.16;;;20.11;37.67
26531;BME280;14201;43.188;24.160;2023-04-02T09:37:40;98832.44;;;19.99;37.34
26531;BME280;14201;43.188;24.160;2023-04-02T09:40:19;98820.84;;;20.14;38.51
26531;BME280;14201;43.188;24.160;2023-04-02T09:42:47;98821.19;;;20.69;39.27
26531;BME280;14201;43.188;24.160;2023-04-02T09:45:23;98826.09;;;20.98;38.38
26531;BME280;14201;43.188;24.160;2023-04-02T09:47:51;98823.03;;;21.29;34.45
26531;BME280;14201;43.188;24.160;2023-04-02T09:52:48;98824.25;;;21.65;35.31
26531;BME280;14201;43.188;24.160;2023-04-02T09:57:39;98818.88;;;22.22;34.21
26531;BME280;14201;43.188;24.160;2023-04-02T10:00:21;98813.31;;;21.28;33.24
26531;BME280;14201;43.188;24.160;2023-04-02T10:05:25;98809.50;;;21.50;35.39
26531;BME280;14201;43.188;24.160;2023-04-02T10:07:52;98811.63;;;21.23;35.89
26531;BME280;14201;43.188;24.160;2023-04-02T10:13:03;98811.19;;;22.07;33.84
26531;BME280;14201;43.188;24.160;2023-04-02T10:15:34;98813.09;;;22.49;34.82
26531;BME280;14201;43.188;24.160;2023-04-02T10:18:08;98804.63;;;22.75;34.61
26531;BME280;14201;43.188;24.160;2023-04-02T10:20:38;98803.59;;;22.82;34.55
26531;BME280;14201;43.188;24.160;2023-04-02T10:23:16;98815.97;;;22.81;35.14
26531;BME280;14201;43.188;24.160;2023-04-02T10:25:48;98796.25;;;22.51;34.84
26531;BME280;14201;43.188;24.160;2023-04-02T10:28:38;98811.50;;;22.41;32.59
26531;BME280;14201;43.188;24.160;2023-04-02T10:31:14;98803.84;;;22.23;33.81
26531;BME280;14201;43.188;24.160;2023-04-02T10:33:49;98814.19;;;22.38;34.86
26531;BME280;14201;43.188;24.160;2023-04-02T10:36:33;98811.13;;;22.58;33.40
26531;BME280;14201;43.188;24.160;2023-04-02T10:41:35;98810.00;;;22.25;33.31
26531;BME280;14201;43.188;24.160;2023-04-02T10:54:38;98783.16;;;23.64;31.73
26531;BME280;14201;43.188;24.160;2023-04-02T10:59:43;98786.13;;;22.27;32.98
26531;BME280;14201;43.188;24.160;2023-04-02T11:05:06;98788.56;;;22.81;32.49
26531;BME280;14201;43.188;24.160;2023-04-02T11:07:40;98781.91;;;23.02;33.86
26531;BME280;14201;43.188;24.160;2023-04-02T11:10:10;98785.72;;;23.31;32.96
26531;BME280;14201;43.188;24.160;2023-04-02T11:12:45;98793.06;;;23.57;32.80
26531;BME280;14201;43.188;24.160;2023-04-02T11:15:14;98783.84;;;23.72;32.16
26531;BME280;14201;43.188;24.160;2023-04-02T11:17:41;98788.41;;;23.67;33.76
26531;BME280;14201;43.188;24.160;2023-04-02T11:20:40;98787.09;;;23.47;32.71
26531;BME280;14201;43.188;24.160;2023-04-02T11:23:28;98783.09;;;22.89;31.98
26531;BME280;14201;43.188;24.160;2023-04-02T11:28:39;98789.03;;;23.00;32.87
26531;BME280;14201;43.188;24.160;2023-04-02T11:31:05;98778.56;;;22.94;32.72
26531;BME280;14201;43.188;24.160;2023-04-02T11:35:59;98785.34;;;22.65;32.51
26531;BME280;14201;43.188;24.160;2023-04-02T11:46:37;98776.63;;;22.12;33.87
26531;BME280;14201;43.188;24.160;2023-04-02T11:48:52;98773.03;;;22.16;33.51
26531;BME280;14201;43.188;24.160;2023-04-02T11:53:44;98766.28;;;21.98;33.33
26531;BME280;14201;43.188;24.160;2023-04-02T11:56:20;98757.00;;;22.22;33.39
26531;BME280;14201;43.188;24.160;2023-04-02T12:01:37;98769.63;;;22.98;32.88
26531;BME280;14201;43.188;24.160;2023-04-02T12:04:15;98775.19;;;22.86;32.40
26531;BME280;14201;43.188;24.160;2023-04-02T12:09:41;98765.44;;;22.86;32.66
26531;BME280;14201;43.188;24.160;2023-04-02T12:12:15;98768.94;;;22.45;33.95
26531;BME280;14201;43.188;24.160;2023-04-02T12:14:43;98768.84;;;22.51;33.77
26531;BME280;14201;43.188;24.160;2023-04-02T12:17:28;98763.94;;;22.29;33.94
26531;BME280;14201;43.188;24.160;2023-04-02T12:20:03;98751.81;;;22.16;33.22
26531;BME280;14201;43.188;24.160;2023-04-02T12:22:38;98760.66;;;22.15;35.17
26531;BME280;14201;43.188;24.160;2023-04-02T12:28:16;98759.47;;;22.31;33.43
26531;BME280;14201;43.188;24.160;2023-04-02T12:30:45;98758.59;;;22.32;32.20
26531;BME280;14201;43.188;24.160;2023-04-02T12:33:33;98757.00;;;22.22;33.26
26531;BME280;14201;43.188;24.160;2023-04-02T12:36:06;98758.34;;;22.45;33.37
26531;BME280;14201;43.188;24.160;2023-04-02T12:43:42;98765.69;;;22.32;33.71
26531;BME280;14201;43.188;24.160;2023-04-02T12:46:08;98755.91;;;22.34;32.88
26531;BME280;14201;43.188;24.160;2023-04-02T12:48:33;98753.28;;;22.32;33.55
26531;BME280;14201;43.188;24.160;2023-04-02T12:51:00;98746.66;;;22.53;34.54
26531;BME280;14201;43.188;24.160;2023-04-02T12:53:39;98754.06;;;22.79;34.26
26531;BME280;14201;43.188;24.160;2023-04-02T12:56:05;98745.84;;;22.92;34.30
26531;BME280;14201;43.188;24.160;2023-04-02T12:58:34;98739.56;;;22.54;33.81
26531;BME280;14201;43.188;24.160;2023-04-02T13:01:14;98750.91;;;22.62;33.42
26531;BME280;14201;43.188;24.160;2023-04-02T13:03:40;98751.81;;;22.61;33.51
26531;BME280;14201;43.188;24.160;2023-04-02T13:06:21;98747.34;;;22.63;33.60
26531;BME280;14201;43.188;24.160;2023-04-02T13:08:48;98752.19;;;22.85;33.52
26531;BME280;14201;43.188;24.160;2023-04-02T13:11:14;98752.91;;;22.91;32.96
26531;BME280;14201;43.188;24.160;2023-04-02T13:13:40;98749.13;;;23.05;32.44
26531;BME280;14201;43.188;24.160;2023-04-02T13:18:39;98742.66;;;23.16;32.22
26531;BME280;14201;43.188;24.160;2023-04-02T13:21:20;98746.03;;;22.84;32.66
26531;BME280;14201;43.188;24.160;2023-04-02T13:23:47;98746.34;;;22.69;32.88
26531;BME280;14201;43.188;24.160;2023-04-02T13:26:20;98741.78;;;22.75;33.32
26531;BME280;14201;43.188;24.160;2023-04-02T13:28:56;98737.72;;;22.57;33.24
26531;BME280;14201;43.188;24.160;2023-04-02T13:31:21;98739.13;;;22.75;33.36
26531;BME280;14201;43.188;24.160;2023-04-02T13:33:47;98740.84;;;22.78;33.89
26531;BME280;14201;43.188;24.160;2023-04-02T13:36:13;98728.50;;;22.75;32.11
26531;BME280;14201;43.188;24.160;2023-04-02T13:38:38;98741.88;;;22.71;34.17
26531;BME280;14201;43.188;24.160;2023-04-02T13:41:04;98734.88;;;22.67;32.85
26531;BME280;14201;43.188;24.160;2023-04-02T13:43:29;98738.63;;;22.56;32.98
26531;BME280;14201;43.188;24.160;2023-04-02T13:45:55;98739.06;;;22.78;34.35
26531;BME280;14201;43.188;24.160;2023-04-02T13:48:22;98744.84;;;22.55;33.67
26531;BME280;14201;43.188;24.160;2023-04-02T13:50:50;98740.50;;;22.53;34.38
26531;BME280;14201;43.188;24.160;2023-04-02T13:53:29;98740.38;;;22.57;34.15
26531;BME280;14201;43.188;24.160;2023-04-02T13:55:57;98733.28;;;22.58;33.67
26531;BME280;14201;43.188;24.160;2023-04-02T13:58:22;98735.13;;;22.54;34.22
26531;BME280;14201;43.188;24.160;2023-04-02T14:00:48;98731.78;;;22.45;34.28
26531;BME280;14201;43.188;24.160;2023-04-02T14:03:21;98736.25;;;22.42;32.99
26531;BME280;14201;43.188;24.160;2023-04-02T14:06:11;98739.19;;;22.29;33.41
26531;BME280;14201;43.188;24.160;2023-04-02T14:32:36;98718.44;;;21.54;34.91
26531;BME280;14201;43.188;24.160;2023-04-02T14:40:59;98711.84;;;21.77;33.74
26531;BME280;14201;43.188;24.160;2023-04-02T14:43:40;98717.97;;;21.80;33.32
26531;BME280;14201;43.188;24.160;2023-04-02T14:46:09;98727.13;;;21.64;34.37
26531;BME280;14201;43.188;24.160;2023-04-02T14:48:47;98724.34;;;21.70;35.12
26531;BME280;14201;43.188;24.160;2023-04-02T14:54:14;98722.69;;;21.65;33.34
26531;BME280;14201;43.188;24.160;2023-04-02T14:56:48;98719.06;;;21.69;33.32
26531;BME280;14201;43.188;24.160;2023-04-02T15:04:56;98716.72;;;21.52;33.21
26531;BME280;14201;43.188;24.160;2023-04-02T15:07:26;98727.44;;;21.44;33.21
26531;BME280;14201;43.188;24.160;2023-04-02T15:12:47;98733.66;;;21.40;34.10
26531;BME280;14201;43.188;24.160;2023-04-02T15:15:31;98730.19;;;21.36;34.15
26531;BME280;14201;43.188;24.160;2023-04-02T15:17:59;98736.34;;;21.38;34.59
26531;BME280;14201;43.188;24.160;2023-04-02T15:20:35;98736.66;;;21.18;34.46
26531;BME280;14201;43.188;24.160;2023-04-02T15:23:12;98741.31;;;21.01;34.77
26531;BME280;14201;43.188;24.160;2023-04-02T15:25:59;98755.72;;;20.81;34.77
26531;BME280;14201;43.188;24.160;2023-04-02T15:28:28;98746.09;;;20.76;35.36
26531;BME280;14201;43.188;24.160;2023-04-02T15:30:59;98742.66;;;20.68;35.71
26531;BME280;14201;43.188;24.160;2023-04-02T15:33:44;98744.44;;;20.67;36.27
26531;BME280;14201;43.188;24.160;2023-04-02T15:38:46;98742.84;;;20.52;35.68
26531;BME280;14201;43.188;24.160;2023-04-02T15:41:29;98753.53;;;20.43;36.23
26531;BME280;14201;43.188;24.160;2023-04-02T15:57:23;98759.97;;;20.19;37.90
26531;BME280;14201;43.188;24.160;2023-04-02T16:00:28;98762.66;;;20.16;37.77
26531;BME280;14201;43.188;24.160;2023-04-02T16:03:17;98764.53;;;20.04;38.36
26531;BME280;14201;43.188;24.160;2023-04-02T16:06:08;98763.72;;;19.96;38.00
26531;BME280;14201;43.188;24.160;2023-04-02T16:11:25;98781.56;;;19.70;38.35
26531;BME280;14201;43.188;24.160;2023-04-02T16:14:15;98785.16;;;19.59;38.70
26531;BME280;14201;43.188;24.160;2023-04-02T16:16:46;98779.06;;;19.53;38.82
26531;BME280;14201;43.188;24.160;2023-04-02T16:19:34;98777.41;;;19.36;39.25
26531;BME280;14201;43.188;24.160;2023-04-02T16:24:58;98787.22;;;19.17;39.93
26531;BME280;14201;43.188;24.160;2023-04-02T16:27:34;98790.81;;;19.08;40.40
26531;BME280;14201;43.188;24.160;2023-04-02T16:30:24;98794.34;;;19.06;40.76